Time;durP1;ratioP1;P1;durP2;ratioP2;P2;SDS_P1;SDS_P2;PMS_P1;PMS_P2;Temp;Humidity;BMP_temperature;BMP_pressure;BME280_temperature;BME280_humidity;BME280_pressure;Samples;Min_cycle;Max_cycle;Signal;HPM_P1;HPM_P2
2022/10/01 00:00:52;;;;;;;7.85;6.78;;;;;;;;;;4985265;28;20042;-68
2022/10/01 00:03:19;;;;;;;9.48;6.68;;;;;;;;;;4992264;28;20051;-68
2022/10/01 00:05:45;;;;;;;8.18;6.45;;;;;;;;;;4992284;28;20046;-68
2022/10/01 00:08:13;;;;;;;10.27;6.57;;;;;;;;;;4986044;28;20132;-68
2022/10/01 00:10:42;;;;;;;8.13;6.88;;;;;;;;;;4992718;28;20056;-68
2022/10/01 00:13:09;;;;;;;11.35;6.72;;;;;;;;;;4992217;28;20402;-68
2022/10/01 00:15:38;;;;;;;8.68;7.07;;;;;;;;;;4994190;28;20556;-68
2022/10/01 00:18:03;;;;;;;9.35;6.95;;;;;;;;;;4987676;28;20132;-68
2022/10/01 00:20:29;;;;;;;8.30;7.40;;;;;;;;;;4991981;28;20160;-68
2022/10/01 00:22:54;;;;;;;12.40;8.18;;;;;;;;;;4983358;28;20042;-68
2022/10/01 00:25:21;;;;;;;9.88;7.65;;;;;;;;;;4991473;28;20053;-68
2022/10/01 00:27:46;;;;;;;8.25;6.70;;;;;;;;;;4969362;28;20045;-68
2022/10/01 00:30:12;;;;;;;9.82;7.45;;;;;;;;;;4987064;28;20470;-68
2022/10/01 00:32:40;;;;;;;10.20;7.75;;;;;;;;;;4990197;28;20045;-68
2022/10/01 00:35:08;;;;;;;8.43;7.18;;;;;;;;;;4995353;28;20051;-68
2022/10/01 00:37:36;;;;;;;10.27;7.50;;;;;;;;;;4992360;28;20046;-68
2022/10/01 00:40:03;;;;;;;10.25;8.02;;;;;;;;;;4991850;28;20053;-68
2022/10/01 00:42:28;;;;;;;9.15;7.75;;;;;;;;;;4987624;28;20046;-68
2022/10/01 00:44:55;;;;;;;8.23;7.25;;;;;;;;;;4988747;28;20056;-68
2022/10/01 00:47:23;;;;;;;13.63;8.05;;;;;;;;;;4984783;28;20057;-68
2022/10/01 00:49:52;;;;;;;14.55;8.10;;;;;;;;;;4986741;28;20169;-68
2022/10/01 00:52:23;;;;;;;10.52;7.20;;;;;;;;;;4987857;28;20050;-68
2022/10/01 00:54:53;;;;;;;9.23;7.90;;;;;;;;;;4994400;28;20046;-68
2022/10/01 00:57:23;;;;;;;8.80;7.75;;;;;;;;;;4988455;28;20050;-68
2022/10/01 00:59:50;;;;;;;10.05;8.15;;;;;;;;;;4988597;28;20055;-69
2022/10/01 01:02:16;;;;;;;11.48;7.82;;;;;;;;;;4993894;28;20049;-69
2022/10/01 01:04:41;;;;;;;10.85;7.70;;;;;;;;;;4993591;28;20051;-69
2022/10/01 01:07:08;;;;;;;9.40;7.70;;;;;;;;;;4987112;28;20069;-69
2022/10/01 01:09:37;;;;;;;11.88;8.00;;;;;;;;;;4980713;28;20058;-69
2022/10/01 01:12:03;;;;;;;10.30;7.70;;;;;;;;;;4995279;28;20086;-69
2022/10/01 01:14:40;;;;;;;9.02;7.80;;;;;;;;;;4990568;28;20635;-69
2022/10/01 01:17:13;;;;;;;8.48;7.50;;;;;;;;;;4990906;28;20120;-69
2022/10/01 01:19:53;;;;;;;9.70;7.82;;;;;;;;;;4992578;28;20033;-69
2022/10/01 01:22:23;;;;;;;11.90;7.88;;;;;;;;;;4983227;28;20054;-69
2022/10/01 01:24:59;;;;;;;10.13;7.75;;;;;;;;;;4991957;28;20635;-69
2022/10/01 01:27:32;;;;;;;8.18;7.25;;;;;;;;;;4993026;28;20513;-69
2022/10/01 01:30:13;;;;;;;10.27;7.90;;;;;;;;;;4989762;28;20069;-67
2022/10/01 01:33:02;;;;;;;9.90;8.20;;;;;;;;;;4989859;28;20418;-68
2022/10/01 01:35:39;;;;;;;10.80;7.97;;;;;;;;;;4986752;28;20289;-67
2022/10/01 01:38:09;;;;;;;8.63;7.72;;;;;;;;;;4985245;28;20061;-67
2022/10/01 01:40:38;;;;;;;12.68;7.25;;;;;;;;;;4987018;28;20049;-68
2022/10/01 01:43:07;;;;;;;10.00;8.07;;;;;;;;;;4993388;28;20053;-68
2022/10/01 01:45:37;;;;;;;8.57;7.45;;;;;;;;;;4989853;28;20829;-68
2022/10/01 01:48:03;;;;;;;9.68;7.30;;;;;;;;;;4990247;28;20074;-68
2022/10/01 01:50:33;;;;;;;8.40;7.55;;;;;;;;;;4991844;28;20502;-68
2022/10/01 01:52:59;;;;;;;9.85;8.10;;;;;;;;;;4992615;28;20113;-68
2022/10/01 01:55:27;;;;;;;8.23;7.00;;;;;;;;;;4995938;28;20388;-68
2022/10/01 01:57:54;;;;;;;8.07;7.22;;;;;;;;;;4994656;28;20077;-68
2022/10/01 02:00:21;;;;;;;8.25;7.45;;;;;;;;;;4993260;28;20410;-68
2022/10/01 02:02:50;;;;;;;9.98;7.97;;;;;;;;;;4993061;28;20057;-68
2022/10/01 02:05:20;;;;;;;9.30;7.30;;;;;;;;;;4993993;28;20038;-69
2022/10/01 02:08:20;;;;;;;9.10;7.72;;;;;;;;;;4996278;28;20072;-68
2022/10/01 02:11:15;;;;;;;8.43;7.40;;;;;;;;;;4957154;28;20053;-68
2022/10/01 02:14:05;;;;;;;9.80;8.20;;;;;;;;;;4991976;28;20050;-68
2022/10/01 02:16:51;;;;;;;11.75;7.72;;;;;;;;;;4993576;28;20050;-69
2022/10/01 02:19:27;;;;;;;8.48;7.28;;;;;;;;;;4995297;28;20582;-69
2022/10/01 02:22:01;;;;;;;8.90;7.63;;;;;;;;;;4957796;28;20060;-68
2022/10/01 02:24:51;;;;;;;11.55;7.38;;;;;;;;;;4998359;28;20042;-68
2022/10/01 02:27:25;;;;;;;9.45;7.43;;;;;;;;;;4984751;28;20061;-67
2022/10/01 02:29:54;;;;;;;10.52;7.13;;;;;;;;;;4992919;28;20055;-69
2022/10/01 02:32:20;;;;;;;8.45;6.50;;;;;;;;;;4984969;28;20054;-69
2022/10/01 02:34:48;;;;;;;9.35;6.65;;;;;;;;;;4990625;28;20072;-69
2022/10/01 02:37:16;;;;;;;7.70;6.85;;;;;;;;;;4996449;28;20068;-69
2022/10/01 02:39:43;;;;;;;8.27;7.10;;;;;;;;;;4984100;28;20547;-69
2022/10/01 02:42:12;;;;;;;8.80;7.28;;;;;;;;;;4986890;28;20046;-69
2022/10/01 02:44:43;;;;;;;11.07;7.45;;;;;;;;;;4987715;28;20878;-69
2022/10/01 02:47:38;;;;;;;10.75;7.50;;;;;;;;;;4994245;28;20050;-69
2022/10/01 02:50:06;;;;;;;11.45;8.32;;;;;;;;;;4951747;28;20058;-68
2022/10/01 02:52:34;;;;;;;10.20;7.78;;;;;;;;;;4991718;28;20522;-68
2022/10/01 02:55:06;;;;;;;11.88;9.20;;;;;;;;;;4982988;28;20097;-68
2022/10/01 02:57:31;;;;;;;9.93;8.43;;;;;;;;;;4979856;28;20077;-68
2022/10/01 02:59:59;;;;;;;15.50;9.10;;;;;;;;;;4992863;28;20524;-68
2022/10/01 03:02:27;;;;;;;9.00;8.00;;;;;;;;;;4987172;28;20752;-68
2022/10/01 03:04:53;;;;;;;15.13;8.52;;;;;;;;;;4989082;28;20054;-68
2022/10/01 03:07:19;;;;;;;10.88;8.85;;;;;;;;;;4984345;28;20598;-68
2022/10/01 03:09:44;;;;;;;10.77;8.60;;;;;;;;;;4989780;28;20053;-69
2022/10/01 03:12:10;;;;;;;11.70;9.05;;;;;;;;;;4984889;28;20054;-69
2022/10/01 03:14:38;;;;;;;11.43;8.32;;;;;;;;;;4982810;28;20502;-68
2022/10/01 03:17:07;;;;;;;9.77;8.13;;;;;;;;;;4985396;28;20085;-69
2022/10/01 03:19:32;;;;;;;9.85;8.20;;;;;;;;;;4990285;28;20133;-68
2022/10/01 03:21:58;;;;;;;15.00;8.45;;;;;;;;;;4966755;28;20056;-69
2022/10/01 03:24:23;;;;;;;13.27;8.20;;;;;;;;;;4983393;28;20072;-69
2022/10/01 03:26:49;;;;;;;9.40;7.65;;;;;;;;;;4983683;28;20046;-69
2022/10/01 03:29:15;;;;;;;9.75;7.55;;;;;;;;;;4986682;28;20137;-69
2022/10/01 03:31:40;;;;;;;9.05;7.30;;;;;;;;;;4994441;28;20130;-68
2022/10/01 03:34:06;;;;;;;10.95;8.30;;;;;;;;;;4980013;28;20053;-69
2022/10/01 03:36:31;;;;;;;10.18;7.25;;;;;;;;;;4981950;28;20105;-69
2022/10/01 03:38:57;;;;;;;9.75;7.40;;;;;;;;;;4981876;28;20041;-69
2022/10/01 03:41:22;;;;;;;12.70;7.95;;;;;;;;;;4990141;28;20137;-69
2022/10/01 03:43:47;;;;;;;9.57;7.47;;;;;;;;;;4982002;28;20107;-69
2022/10/01 03:46:13;;;;;;;11.65;8.65;;;;;;;;;;4982308;28;20414;-69
2022/10/01 03:48:39;;;;;;;11.07;8.05;;;;;;;;;;4990656;28;20104;-69
2022/10/01 03:51:05;;;;;;;9.48;7.75;;;;;;;;;;4985275;28;20050;-69
2022/10/01 03:53:30;;;;;;;11.57;8.48;;;;;;;;;;4994050;28;20054;-67
2022/10/01 03:55:57;;;;;;;10.20;8.00;;;;;;;;;;4989936;28;20122;-67
2022/10/01 03:58:23;;;;;;;12.43;8.20;;;;;;;;;;4996717;28;20185;-68
2022/10/01 04:00:49;;;;;;;11.70;8.98;;;;;;;;;;4982568;28;20168;-67
2022/10/01 04:03:16;;;;;;;9.93;7.53;;;;;;;;;;4995307;28;20049;-68
2022/10/01 04:05:43;;;;;;;10.35;8.27;;;;;;;;;;4990759;28;20134;-68
2022/10/01 04:08:10;;;;;;;11.98;9.27;;;;;;;;;;4985188;28;20046;-67
2022/10/01 04:10:35;;;;;;;13.60;8.80;;;;;;;;;;4982182;28;20050;-67
2022/10/01 04:13:01;;;;;;;13.75;8.60;;;;;;;;;;4985462;28;20569;-68
2022/10/01 04:15:27;;;;;;;12.07;8.55;;;;;;;;;;4990063;28;20046;-68
2022/10/01 04:17:52;;;;;;;10.52;8.52;;;;;;;;;;4983121;28;20077;-68
2022/10/01 04:20:18;;;;;;;14.95;8.15;;;;;;;;;;4986279;28;20049;-68
2022/10/01 04:22:44;;;;;;;12.93;8.85;;;;;;;;;;4981553;28;20058;-68
2022/10/01 04:25:11;;;;;;;12.05;8.43;;;;;;;;;;4988964;28;20077;-68
2022/10/01 04:27:37;;;;;;;13.13;8.90;;;;;;;;;;4983276;28;20416;-69
2022/10/01 04:30:05;;;;;;;16.73;9.57;;;;;;;;;;4987847;28;20565;-68
2022/10/01 04:32:31;;;;;;;11.07;8.38;;;;;;;;;;4984215;28;20134;-68
2022/10/01 04:34:56;;;;;;;13.18;9.18;;;;;;;;;;4981847;28;20141;-69
2022/10/01 04:37:22;;;;;;;14.18;9.30;;;;;;;;;;4991682;28;20050;-69
2022/10/01 04:39:48;;;;;;;12.30;8.85;;;;;;;;;;4980808;28;20050;-69
2022/10/01 04:42:14;;;;;;;11.88;8.68;;;;;;;;;;4990851;28;21030;-68
2022/10/01 04:44:40;;;;;;;16.60;10.40;;;;;;;;;;4988243;28;20892;-69
2022/10/01 04:47:07;;;;;;;13.68;9.80;;;;;;;;;;4982036;28;20077;-68
2022/10/01 04:49:33;;;;;;;13.68;9.27;;;;;;;;;;4990974;28;20157;-68
2022/10/01 04:51:59;;;;;;;16.35;9.75;;;;;;;;;;4985708;28;20180;-69
2022/10/01 04:54:25;;;;;;;13.85;9.30;;;;;;;;;;4981116;28;20499;-68
2022/10/01 04:56:51;;;;;;;15.73;9.60;;;;;;;;;;4983507;28;20046;-68
2022/10/01 04:59:17;;;;;;;24.67;12.02;;;;;;;;;;4995503;28;20704;-70
2022/10/01 05:01:43;;;;;;;19.52;10.73;;;;;;;;;;4989996;28;20053;-70
2022/10/01 05:04:08;;;;;;;16.17;11.10;;;;;;;;;;4988866;28;20115;-70
2022/10/01 05:06:34;;;;;;;13.82;9.68;;;;;;;;;;4988052;28;20455;-70
2022/10/01 05:08:59;;;;;;;16.15;10.68;;;;;;;;;;4988122;28;20074;-71
2022/10/01 05:11:25;;;;;;;13.57;10.18;;;;;;;;;;4991818;28;20067;-71
2022/10/01 05:13:51;;;;;;;12.70;10.10;;;;;;;;;;4988399;28;20544;-70
2022/10/01 05:16:16;;;;;;;13.15;9.65;;;;;;;;;;4989856;28;20137;-70
2022/10/01 05:18:42;;;;;;;17.02;9.93;;;;;;;;;;4985855;28;20502;-70
2022/10/01 05:21:10;;;;;;;14.07;9.90;;;;;;;;;;4983667;28;20042;-72
2022/10/01 05:23:36;;;;;;;16.85;8.65;;;;;;;;;;4982514;28;20042;-72
2022/10/01 05:26:04;;;;;;;15.90;10.00;;;;;;;;;;4979945;28;20077;-72
2022/10/01 05:28:30;;;;;;;12.93;9.15;;;;;;;;;;4989701;28;20086;-72
2022/10/01 05:31:01;;;;;;;9.93;8.20;;;;;;;;;;4992406;28;20065;-72
2022/10/01 05:33:27;;;;;;;8.88;7.15;;;;;;;;;;4991109;28;20044;-73
2022/10/01 05:35:53;;;;;;;8.70;7.38;;;;;;;;;;4980277;28;20056;-71
2022/10/01 05:38:18;;;;;;;10.25;7.43;;;;;;;;;;4991010;28;20042;-69
2022/10/01 05:40:45;;;;;;;11.63;6.53;;;;;;;;;;4986887;28;20103;-69
2022/10/01 05:43:11;;;;;;;10.68;5.95;;;;;;;;;;4984878;28;20050;-70
2022/10/01 05:45:37;;;;;;;6.18;5.57;;;;;;;;;;4984543;28;20129;-71
2022/10/01 05:48:05;;;;;;;6.43;5.45;;;;;;;;;;4984742;28;20234;-70
2022/10/01 05:50:33;;;;;;;6.30;5.70;;;;;;;;;;4985189;28;20046;-71
2022/10/01 05:53:00;;;;;;;6.38;5.78;;;;;;;;;;4984204;28;20081;-71
2022/10/01 05:55:30;;;;;;;8.40;5.90;;;;;;;;;;4983558;28;20042;-70
2022/10/01 05:57:57;;;;;;;7.72;6.13;;;;;;;;;;4986665;28;20050;-70
2022/10/01 06:00:26;;;;;;;7.25;6.20;;;;;;;;;;4985928;28;20038;-70
2022/10/01 06:02:52;;;;;;;7.88;5.38;;;;;;;;;;4984364;28;20043;-70
2022/10/01 06:05:19;;;;;;;5.82;5.20;;;;;;;;;;4983803;28;20430;-71
2022/10/01 06:07:44;;;;;;;6.22;5.28;;;;;;;;;;4984104;28;20137;-71
2022/10/01 06:10:10;;;;;;;6.32;5.38;;;;;;;;;;4984167;28;20137;-72
2022/10/01 06:12:35;;;;;;;5.82;5.13;;;;;;;;;;4983771;28;20046;-71
2022/10/01 06:15:01;;;;;;;7.60;5.75;;;;;;;;;;4981969;28;20929;-71
2022/10/01 06:17:26;;;;;;;10.52;5.57;;;;;;;;;;4981343;28;20053;-72
2022/10/01 06:19:51;;;;;;;6.05;5.18;;;;;;;;;;4983545;28;20050;-72
2022/10/01 06:22:17;;;;;;;8.38;6.05;;;;;;;;;;4983943;28;20073;-71
2022/10/01 06:24:42;;;;;;;8.07;6.00;;;;;;;;;;4983641;28;20450;-70
2022/10/01 06:27:09;;;;;;;10.10;5.78;;;;;;;;;;4986443;28;20069;-70
2022/10/01 06:29:34;;;;;;;6.82;5.30;;;;;;;;;;4983606;28;20054;-69
2022/10/01 06:32:00;;;;;;;5.85;4.70;;;;;;;;;;4983862;28;20034;-71
2022/10/01 06:34:26;;;;;;;5.80;4.88;;;;;;;;;;4982995;28;20160;-72
2022/10/01 06:36:51;;;;;;;5.55;4.72;;;;;;;;;;4985030;28;20054;-71
2022/10/01 06:39:16;;;;;;;5.32;4.72;;;;;;;;;;4985709;28;20487;-71
2022/10/01 06:41:42;;;;;;;9.20;6.63;;;;;;;;;;4980027;28;20100;-71
2022/10/01 06:44:13;;;;;;;5.78;4.55;;;;;;;;;;4982924;28;20042;-71
2022/10/01 06:46:39;;;;;;;4.90;4.40;;;;;;;;;;4982992;28;20053;-71
2022/10/01 06:49:04;;;;;;;8.00;4.28;;;;;;;;;;4987034;28;20050;-71
2022/10/01 06:54:16;;;;;;;3.72;3.42;;;;;;;;;;4984136;28;20053;-71
2022/10/01 06:56:42;;;;;;;4.22;3.50;;;;;;;;;;4983124;28;20030;-71
2022/10/01 06:59:07;;;;;;;3.42;3.13;;;;;;;;;;4983976;28;20058;-72
2022/10/01 07:01:33;;;;;;;5.78;3.75;;;;;;;;;;4969515;28;20484;-71
2022/10/01 07:03:58;;;;;;;3.65;3.30;;;;;;;;;;4982659;28;20105;-70
2022/10/01 07:06:24;;;;;;;4.13;3.72;;;;;;;;;;4983110;28;20045;-70
2022/10/01 07:08:50;;;;;;;4.35;3.30;;;;;;;;;;4983007;28;20097;-70
2022/10/01 07:11:15;;;;;;;4.07;3.67;;;;;;;;;;4983380;28;20050;-70
2022/10/01 07:13:41;;;;;;;3.90;3.50;;;;;;;;;;4983405;28;20042;-70
2022/10/01 07:16:06;;;;;;;4.10;3.70;;;;;;;;;;4982506;28;20908;-70
2022/10/01 07:18:32;;;;;;;4.63;3.95;;;;;;;;;;4982424;28;20069;-70
2022/10/01 07:20:58;;;;;;;3.78;3.47;;;;;;;;;;4982245;28;20097;-70
2022/10/01 07:23:23;;;;;;;7.82;4.10;;;;;;;;;;4981728;28;20518;-69
2022/10/01 07:25:49;;;;;;;5.80;4.28;;;;;;;;;;4983141;28;20384;-69
2022/10/01 07:28:18;;;;;;;3.85;3.47;;;;;;;;;;4984528;28;20073;-70
2022/10/01 07:31:01;;;;;;;3.80;3.40;;;;;;;;;;4985262;28;20050;-70
2022/10/01 07:33:27;;;;;;;3.45;3.15;;;;;;;;;;4987723;28;20042;-70
2022/10/01 07:35:53;;;;;;;3.53;3.22;;;;;;;;;;4980374;28;20034;-70
2022/10/01 07:38:18;;;;;;;3.33;2.97;;;;;;;;;;4981639;28;20049;-69
2022/10/01 07:40:50;;;;;;;3.47;3.17;;;;;;;;;;4972108;28;20695;-70
2022/10/01 07:43:16;;;;;;;5.78;3.00;;;;;;;;;;4983816;28;20042;-69
2022/10/01 07:45:43;;;;;;;3.67;2.70;;;;;;;;;;4987832;28;20038;-69
2022/10/01 07:48:08;;;;;;;3.00;2.60;;;;;;;;;;4976641;28;20109;-70
2022/10/01 07:50:34;;;;;;;4.80;2.53;;;;;;;;;;4992342;28;20057;-69
2022/10/01 07:52:59;;;;;;;2.85;2.65;;;;;;;;;;4982996;28;20112;-69
2022/10/01 07:55:27;;;;;;;2.83;2.60;;;;;;;;;;4999684;28;20042;-69
2022/10/01 07:57:54;;;;;;;3.47;2.20;;;;;;;;;;4981502;28;20112;-70
2022/10/01 08:00:20;;;;;;;2.00;1.85;;;;;;;;;;4984878;28;20569;-69
2022/10/01 08:02:47;;;;;;;2.30;2.10;;;;;;;;;;4986660;28;20082;-70
2022/10/01 08:05:16;;;;;;;2.10;1.85;;;;;;;;;;4985756;28;20618;-70
2022/10/01 08:07:41;;;;;;;3.22;1.70;;;;;;;;;;4980467;28;20052;-69
2022/10/01 08:10:07;;;;;;;2.35;1.55;;;;;;;;;;4981579;28;20073;-68
2022/10/01 08:12:33;;;;;;;3.28;1.60;;;;;;;;;;4984120;28;20056;-69
2022/10/01 08:14:58;;;;;;;1.60;1.50;;;;;;;;;;4989778;28;20529;-69
2022/10/01 08:17:24;;;;;;;1.98;1.77;;;;;;;;;;4985344;28;20061;-70
2022/10/01 08:19:49;;;;;;;3.40;1.60;;;;;;;;;;4982347;28;20529;-70
2022/10/01 08:22:15;;;;;;;1.50;1.40;;;;;;;;;;4983459;28;20050;-70
2022/10/01 08:24:40;;;;;;;1.60;1.50;;;;;;;;;;4986780;28;20091;-69
2022/10/01 08:27:06;;;;;;;1.90;1.65;;;;;;;;;;4993408;28;20104;-69
2022/10/01 08:29:32;;;;;;;1.77;1.40;;;;;;;;;;4993848;28;20045;-69
2022/10/01 08:31:58;;;;;;;2.67;1.10;;;;;;;;;;4981485;28;20057;-70
2022/10/01 08:34:23;;;;;;;1.45;1.30;;;;;;;;;;4974392;28;20046;-70
2022/10/01 08:36:53;;;;;;;1.30;1.20;;;;;;;;;;4980443;28;20094;-70
2022/10/01 08:39:19;;;;;;;1.42;1.33;;;;;;;;;;4987450;28;20529;-70
2022/10/01 08:41:50;;;;;;;2.65;1.30;;;;;;;;;;4981385;28;20579;-70
2022/10/01 08:44:36;;;;;;;2.17;1.05;;;;;;;;;;4980766;28;20050;-70
2022/10/01 08:47:12;;;;;;;3.50;1.20;;;;;;;;;;4984437;28;20085;-70
2022/10/01 08:49:44;;;;;;;1.73;1.10;;;;;;;;;;4997877;28;20540;-70
2022/10/01 08:52:13;;;;;;;;;;;;;;;;;;4984618;28;20047;-70
2022/10/01 08:54:47;;;;;;;2.00;1.40;;;;;;;;;;4980779;28;19921;-70
2022/10/01 08:57:18;;;;;;;1.30;1.20;;;;;;;;;;4980591;28;20479;-70
2022/10/01 08:59:48;;;;;;;1.40;1.20;;;;;;;;;;4989851;28;20133;-70
2022/10/01 09:02:24;;;;;;;0.90;0.90;;;;;;;;;;4977670;28;20116;-71
2022/10/01 09:04:56;;;;;;;2.72;1.13;;;;;;;;;;4987040;28;20042;-70
2022/10/01 09:07:37;;;;;;;1.20;0.93;;;;;;;;;;4990808;28;20503;-70
2022/10/01 09:10:35;;;;;;;0.80;0.80;;;;;;;;;;4971003;28;20073;-70
2022/10/01 09:13:28;;;;;;;1.00;1.00;;;;;;;;;;4973638;28;20125;-70
2022/10/01 09:16:15;;;;;;;1.33;1.23;;;;;;;;;;4984154;28;20042;-70
2022/10/01 09:19:09;;;;;;;1.40;1.30;;;;;;;;;;4988495;28;20101;-69
2022/10/01 09:21:44;;;;;;;1.15;1.10;;;;;;;;;;4986307;28;20050;-70
2022/10/01 09:24:14;;;;;;;1.50;1.40;;;;;;;;;;4988517;28;20050;-70
2022/10/01 09:26:44;;;;;;;2.70;1.75;;;;;;;;;;4983785;28;20054;-70
2022/10/01 09:29:22;;;;;;;1.77;1.60;;;;;;;;;;4983804;28;20078;-70
2022/10/01 09:31:51;;;;;;;1.90;1.73;;;;;;;;;;4984378;28;20058;-70
2022/10/01 09:34:42;;;;;;;6.28;1.70;;;;;;;;;;4997134;28;20748;-72
2022/10/01 09:37:23;;;;;;;1.77;1.67;;;;;;;;;;4989629;28;20064;-70
2022/10/01 09:40:14;;;;;;;1.70;1.60;;;;;;;;;;4982671;28;20073;-69
2022/10/01 09:42:40;;;;;;;1.50;1.40;;;;;;;;;;4984099;28;20038;-70
2022/10/01 09:45:17;;;;;;;1.80;1.70;;;;;;;;;;4987711;28;20057;-71
2022/10/01 09:47:47;;;;;;;3.08;1.40;;;;;;;;;;4982882;28;20054;-71
2022/10/01 09:50:32;;;;;;;1.48;1.38;;;;;;;;;;4989019;28;20221;-71
2022/10/01 09:52:59;;;;;;;4.18;1.00;;;;;;;;;;4991587;28;20049;-70
2022/10/01 09:55:39;;;;;;;0.80;0.80;;;;;;;;;;4983707;28;20042;-74
2022/10/01 09:58:25;;;;;;;2.00;1.40;;;;;;;;;;4991846;28;20045;-70
2022/10/01 10:00:52;;;;;;;1.58;1.10;;;;;;;;;;4987875;28;21384;-69
2022/10/01 10:03:27;;;;;;;2.05;1.38;;;;;;;;;;4994051;28;20091;-70
2022/10/01 10:05:53;;;;;;;1.90;1.50;;;;;;;;;;4988316;28;20054;-69
2022/10/01 10:08:30;;;;;;;1.73;1.63;;;;;;;;;;4994063;28;20050;-70
2022/10/01 10:10:57;;;;;;;1.85;1.42;;;;;;;;;;4983287;28;20050;-70
2022/10/01 10:13:30;;;;;;;4.32;1.73;;;;;;;;;;4983597;28;20101;-69
2022/10/01 10:15:58;;;;;;;1.73;1.63;;;;;;;;;;4963730;28;20145;-69
2022/10/01 10:18:35;;;;;;;1.98;1.77;;;;;;;;;;4980916;28;20054;-70
2022/10/01 10:21:15;;;;;;;2.45;1.90;;;;;;;;;;4990312;28;20105;-70
2022/10/01 10:23:52;;;;;;;2.20;2.00;;;;;;;;;;4984495;28;20050;-70
2022/10/01 10:26:30;;;;;;;4.03;2.00;;;;;;;;;;4984251;28;20142;-71
2022/10/01 10:28:58;;;;;;;2.22;2.10;;;;;;;;;;4990491;28;20053;-70
2022/10/01 10:31:34;;;;;;;5.25;2.00;;;;;;;;;;4985258;28;20105;-70
2022/10/01 10:34:41;;;;;;;2.60;2.40;;;;;;;;;;4936415;28;20054;-70
2022/10/01 10:37:13;;;;;;;3.58;2.60;;;;;;;;;;4903086;29;20100;-69
2022/10/01 10:39:44;;;;;;;2.95;2.67;;;;;;;;;;4887005;29;20048;-68
2022/10/01 10:42:13;;;;;;;3.30;2.50;;;;;;;;;;4949383;28;20499;-69
2022/10/01 10:44:42;;;;;;;4.93;2.38;;;;;;;;;;4983223;28;20050;-69
2022/10/01 10:47:13;;;;;;;3.13;2.83;;;;;;;;;;4985841;28;20104;-69
2022/10/01 10:50:00;;;;;;;3.10;2.80;;;;;;;;;;4990352;28;20100;-70
2022/10/01 10:52:35;;;;;;;2.83;2.63;;;;;;;;;;4984996;28;20055;-71
2022/10/01 10:55:20;;;;;;;2.88;2.50;;;;;;;;;;4970733;28;20455;-70
2022/10/01 10:57:46;;;;;;;4.20;2.85;;;;;;;;;;4982121;28;20061;-70
2022/10/01 11:00:14;;;;;;;4.22;2.88;;;;;;;;;;4989624;28;20119;-70
2022/10/01 11:02:52;;;;;;;3.60;3.05;;;;;;;;;;4998486;28;20057;-70
2022/10/01 11:05:30;;;;;;;3.65;3.22;;;;;;;;;;4987760;28;20073;-70
2022/10/01 11:07:59;;;;;;;3.53;3.22;;;;;;;;;;4956632;28;20447;-70
2022/10/01 11:10:40;;;;;;;3.70;3.30;;;;;;;;;;4988016;28;20061;-70
2022/10/01 11:13:52;;;;;;;4.20;3.80;;;;;;;;;;4987252;28;20046;-70
2022/10/01 11:16:31;;;;;;;5.20;3.42;;;;;;;;;;4967692;28;20053;-70
2022/10/01 11:19:21;;;;;;;8.43;4.22;;;;;;;;;;4982307;28;20054;-70
2022/10/01 11:21:47;;;;;;;3.97;3.67;;;;;;;;;;4987399;28;20060;-70
2022/10/01 11:24:50;;;;;;;4.40;4.00;;;;;;;;;;4991127;28;20057;-69
2022/10/01 11:27:25;;;;;;;5.22;4.28;;;;;;;;;;4985386;28;20051;-71
2022/10/01 11:29:53;;;;;;;6.00;4.50;;;;;;;;;;4986558;28;20077;-71
2022/10/01 11:32:32;;;;;;;4.63;4.20;;;;;;;;;;4981855;28;20125;-69
2022/10/01 11:35:33;;;;;;;5.03;4.38;;;;;;;;;;4994343;28;20090;-70
2022/10/01 11:38:40;;;;;;;4.68;2.30;;;;;;;;;;4974864;28;20042;-69
2022/10/01 11:41:22;;;;;;;1.95;1.27;;;;;;;;;;4975659;28;20169;-69
2022/10/01 11:43:52;;;;;;;1.60;1.50;;;;;;;;;;4979812;28;20054;-70
2022/10/01 11:46:32;;;;;;;1.98;1.50;;;;;;;;;;4984292;28;20050;-70
2022/10/01 11:49:04;;;;;;;1.52;1.38;;;;;;;;;;4994752;28;20046;-70
2022/10/01 11:51:42;;;;;;;3.90;1.75;;;;;;;;;;4984220;28;20499;-70
2022/10/01 11:54:13;;;;;;;1.50;1.40;;;;;;;;;;4988746;28;20406;-70
2022/10/01 11:59:49;;;;;;;1.70;1.60;;;;;;;;;;4984109;28;20050;-70
2022/10/01 12:02:25;;;;;;;3.13;2.20;;;;;;;;;;4983703;28;20049;-70
2022/10/01 12:05:01;;;;;;;1.65;1.42;;;;;;;;;;4986349;28;20061;-70
2022/10/01 12:07:45;;;;;;;3.50;1.70;;;;;;;;;;4989190;28;20509;-72
2022/10/01 12:10:43;;;;;;;1.98;1.70;;;;;;;;;;4981520;28;20043;-71
2022/10/01 12:13:15;;;;;;;4.30;2.10;;;;;;;;;;4981893;28;20060;-70
2022/10/01 12:16:00;;;;;;;2.47;1.88;;;;;;;;;;4985509;28;20038;-70
2022/10/01 12:18:37;;;;;;;2.50;1.88;;;;;;;;;;4989939;28;20045;-71
2022/10/01 12:21:09;;;;;;;2.40;1.90;;;;;;;;;;4986012;28;20053;-72
2022/10/01 12:23:42;;;;;;;1.80;1.70;;;;;;;;;;4984030;28;20063;-70
2022/10/01 12:26:11;;;;;;;2.95;2.00;;;;;;;;;;4994128;28;20046;-71
2022/10/01 12:28:56;;;;;;;3.90;2.20;;;;;;;;;;4984532;28;20077;-71
2022/10/01 12:31:32;;;;;;;3.15;1.75;;;;;;;;;;4987174;28;20058;-71
2022/10/01 12:34:10;;;;;;;3.58;2.53;;;;;;;;;;4947744;28;20045;-71
2022/10/01 12:37:03;;;;;;;2.08;1.85;;;;;;;;;;4987212;28;20042;-71
2022/10/01 12:39:42;;;;;;;6.20;1.90;;;;;;;;;;4980804;28;20108;-73
2022/10/01 12:42:19;;;;;;;1.95;1.70;;;;;;;;;;4997056;28;20054;-71
2022/10/01 12:45:19;;;;;;;2.35;1.80;;;;;;;;;;4993221;28;20974;-73
2022/10/01 12:47:56;;;;;;;2.67;2.08;;;;;;;;;;4951222;28;20050;-73
2022/10/01 12:50:37;;;;;;;2.72;2.10;;;;;;;;;;4987217;28;21135;-71
2022/10/01 12:53:12;;;;;;;6.75;1.80;;;;;;;;;;4987838;28;20058;-71
2022/10/01 12:56:00;;;;;;;1.60;1.50;;;;;;;;;;4985731;28;20138;-71
2022/10/01 12:58:42;;;;;;;3.50;1.67;;;;;;;;;;4967533;28;20410;-71
2022/10/01 13:01:35;;;;;;;1.80;1.70;;;;;;;;;;4983887;28;20054;-72
2022/10/01 13:04:04;;;;;;;4.38;1.40;;;;;;;;;;4972311;28;20125;-71
2022/10/01 13:06:44;;;;;;;2.75;1.70;;;;;;;;;;4985854;28;20050;-72
2022/10/01 13:09:56;;;;;;;1.38;1.27;;;;;;;;;;4967443;28;20109;-73
2022/10/01 13:12:42;;;;;;;4.65;1.40;;;;;;;;;;4904441;29;20044;-71
2022/10/01 13:15:24;;;;;;;1.50;1.40;;;;;;;;;;4903381;29;20059;-74
2022/10/01 13:18:08;;;;;;;;;;;;;;;;;;4967963;28;20396;-74
2022/10/01 13:20:51;;;;;;;4.90;1.35;;;;;;;;;;4983055;28;19972;-72
2022/10/01 13:23:57;;;;;;;3.55;1.30;;;;;;;;;;4989221;28;20077;-73
2022/10/01 13:26:33;;;;;;;1.38;1.27;;;;;;;;;;4922796;28;20571;-74
2022/10/01 13:29:13;;;;;;;3.95;1.60;;;;;;;;;;4985632;28;20046;-74
2022/10/01 13:31:58;;;;;;;3.17;1.70;;;;;;;;;;4984931;28;20065;-74
2022/10/01 13:34:37;;;;;;;3.08;1.80;;;;;;;;;;4983801;28;20050;-72
2022/10/01 13:37:11;;;;;;;2.22;1.80;;;;;;;;;;4973097;28;20046;-72
2022/10/01 13:39:40;;;;;;;3.80;1.92;;;;;;;;;;4979844;28;20134;-71
2022/10/01 13:42:15;;;;;;;2.45;1.50;;;;;;;;;;4989057;28;20047;-72
2022/10/01 13:44:41;;;;;;;2.00;1.60;;;;;;;;;;4981819;28;20161;-71
2022/10/01 13:47:08;;;;;;;1.40;1.30;;;;;;;;;;4991148;28;20050;-72
2022/10/01 13:49:36;;;;;;;1.50;1.20;;;;;;;;;;4979743;28;20043;-71
2022/10/01 13:52:03;;;;;;;1.45;1.15;;;;;;;;;;4992731;28;20050;-73
2022/10/01 13:54:42;;;;;;;2.05;1.38;;;;;;;;;;4966115;28;20089;-71
2022/10/01 13:57:09;;;;;;;1.52;1.05;;;;;;;;;;4983803;28;20049;-71
2022/10/01 13:59:37;;;;;;;1.02;0.80;;;;;;;;;;4993229;28;20038;-71
2022/10/01 14:02:33;;;;;;;1.40;1.02;;;;;;;;;;4983285;28;20042;-72
2022/10/01 14:05:16;;;;;;;2.80;0.77;;;;;;;;;;4982729;28;20108;-71
2022/10/01 14:07:44;;;;;;;4.95;0.90;;;;;;;;;;4985561;28;20046;-71
2022/10/01 14:10:13;;;;;;;1.73;1.00;;;;;;;;;;4989633;28;20050;-71
2022/10/01 14:15:58;;;;;;;0.75;0.75;;;;;;;;;;4983143;28;20582;-71
2022/10/01 14:18:37;;;;;;;0.95;0.90;;;;;;;;;;4967238;28;20085;-72
2022/10/01 14:21:15;;;;;;;3.50;1.02;;;;;;;;;;4998845;28;20062;-71
2022/10/01 14:23:48;;;;;;;1.13;0.70;;;;;;;;;;4984813;28;20042;-71
2022/10/01 14:26:29;;;;;;;3.70;0.93;;;;;;;;;;4983728;28;20057;-70
2022/10/01 14:29:02;;;;;;;1.60;1.05;;;;;;;;;;4988622;28;20077;-71
2022/10/01 14:31:45;;;;;;;0.93;0.93;;;;;;;;;;4982928;28;20061;-70
2022/10/01 14:34:48;;;;;;;0.88;0.88;;;;;;;;;;4985107;28;20050;-70
2022/10/01 14:37:17;;;;;;;0.70;0.70;;;;;;;;;;4989449;28;20053;-70
2022/10/01 14:39:43;;;;;;;1.33;1.00;;;;;;;;;;4984115;28;20089;-70
2022/10/01 14:42:14;;;;;;;1.35;1.05;;;;;;;;;;4995242;28;20069;-70
2022/10/01 14:44:42;;;;;;;3.92;1.00;;;;;;;;;;4986258;28;20050;-70
2022/10/01 14:47:17;;;;;;;0.80;0.80;;;;;;;;;;4983157;28;20096;-70
2022/10/01 14:49:42;;;;;;;0.70;0.70;;;;;;;;;;4980279;28;20157;-70
2022/10/01 14:52:20;;;;;;;0.90;0.90;;;;;;;;;;4986636;28;20180;-70
2022/10/01 14:55:04;;;;;;;0.60;0.60;;;;;;;;;;4985054;28;20060;-71
2022/10/01 14:57:37;;;;;;;0.80;0.80;;;;;;;;;;4986684;28;20054;-70
2022/10/01 15:00:08;;;;;;;0.93;0.85;;;;;;;;;;4982746;28;20074;-71
2022/10/01 15:02:47;;;;;;;1.38;0.88;;;;;;;;;;4987016;28;20038;-70
2022/10/01 15:05:32;;;;;;;2.80;0.88;;;;;;;;;;4997083;28;20046;-70
2022/10/01 15:08:22;;;;;;;3.33;0.80;;;;;;;;;;4977085;28;20061;-70
2022/10/01 15:10:59;;;;;;;2.03;0.88;;;;;;;;;;4982405;28;20100;-70
2022/10/01 15:13:36;;;;;;;1.00;0.80;;;;;;;;;;4988634;28;20053;-70
2022/10/01 15:16:02;;;;;;;1.00;0.90;;;;;;;;;;4948689;28;20122;-70
2022/10/01 15:18:29;;;;;;;1.17;1.10;;;;;;;;;;4983948;28;20168;-70